Time;durP1;ratioP1;P1;durP2;ratioP2;P2;SDS_P1;SDS_P2;PMS_P1;PMS_P2;Temp;Humidity;BMP_temperature;BMP_pressure;BME280_temperature;BME280_humidity;BME280_pressure;Samples;Min_cycle;Max_cycle;Signal;HPM_P1;HPM_P2
2023/12/16 00:00:02;;;;;;;6.25;2.35;;;;;;;;;;4834461;29;20075;-94
2023/12/16 00:02:38;;;;;;;11.95;2.58;;;;;;;;;;4817160;29;20098;-92
2023/12/16 00:05:25;;;;;;;10.25;2.92;;;;;;;;;;4802805;29;20152;-94
2023/12/16 00:07:56;;;;;;;12.68;2.50;;;;;;;;;;4788927;24;20128;-94
2023/12/16 00:13:37;;;;;;;6.90;2.80;;;;;;;;;;4815607;29;20054;-94
2023/12/16 00:19:29;;;;;;;9.82;2.83;;;;;;;;;;4811770;29;20084;-94
2023/12/16 00:22:16;;;;;;;7.75;2.55;;;;;;;;;;4831494;29;20106;-94
2023/12/16 00:25:11;;;;;;;9.52;2.50;;;;;;;;;;4818281;29;20059;-92
2023/12/16 00:27:47;;;;;;;9.88;3.03;;;;;;;;;;4818369;29;20129;-93
2023/12/16 00:30:27;;;;;;;6.32;2.25;;;;;;;;;;4804052;30;20066;-90
2023/12/16 00:35:53;;;;;;;7.82;2.63;;;7.20;99.90;;;;;;4818753;29;20138;-90
2023/12/16 00:42:16;;;;;;;7.72;2.50;;;;;;;;;;4862716;24;20050;-91
2023/12/16 00:45:24;;;;;;;8.20;2.33;;;;;;;;;;4791538;30;20119;-90
2023/12/16 01:09:25;;;;;;;12.73;2.47;;;;;;;;;;4827694;24;20138;-90
2023/12/16 01:17:45;;;;;;;7.05;2.72;;;;;;;;;;3972873;24;20103;-90
2023/12/16 01:20:43;;;;;;;3.88;2.15;;;;;;;;;;4848554;29;20050;-91
2023/12/16 01:23:27;;;;;;;9.80;2.15;;;;;;;;;;4849289;29;20038;-90
2023/12/16 01:35:09;;;;;;;6.68;2.50;;;;;;;;;;4429364;27;20027;-89
2023/12/16 01:58:52;;;;;;;6.88;2.13;;;6.90;99.90;;;;;;4154140;24;20082;-90
2023/12/16 02:12:21;;;;;;;5.20;2.10;;;6.90;99.90;;;;;;4851916;24;20130;-91
2023/12/16 02:15:29;;;;;;;9.50;2.15;;;;;;;;;;4874300;24;20068;-95
2023/12/16 02:18:40;;;;;;;3.55;2.20;;;;;;;;;;4961771;24;20069;-92
2023/12/16 02:25:35;;;;;;;9.95;2.05;;;;;;;;;;4769582;30;20068;-94
2023/12/16 02:28:37;;;;;;;6.35;2.35;;;;;;;;;;4785084;30;20051;-93
2023/12/16 02:31:47;;;;;;;4.75;2.63;;;6.80;99.90;;;;;;4732754;30;20045;-93
2023/12/16 02:34:56;;;;;;;11.43;3.42;;;;;;;;;;4709433;30;20052;-93
2023/12/16 02:37:52;;;;;;;;;;;;;;;;;;;;;
2023/12/16 02:41:13;;;;;;;8.93;2.83;;;;;;;;;;4723429;24;20061;-93
2023/12/16 02:44:34;;;;;;;13.48;4.03;;;;;;;;;;4731562;30;20053;-94
2023/12/16 02:47:08;;;;;;;10.48;3.53;;;;;;;;;;4718674;30;20108;-94
2023/12/16 03:08:04;;;;;;;9.82;3.30;;;;;;;;;;4822377;29;20057;-94
2023/12/16 03:10:55;;;;;;;10.10;2.92;;;;;;;;;;4813857;29;20047;-93
2023/12/16 03:13:36;;;;;;;7.47;2.60;;;;;;;;;;4828883;29;20061;-93
2023/12/16 03:16:55;;;;;;;10.85;3.08;;;6.40;99.90;;;;;;4839123;23;20051;-93
2023/12/16 03:22:54;;;;;;;9.48;2.85;;;;;;;;;;2503143;24;20107;-93
2023/12/16 03:26:00;;;;;;;8.95;2.90;;;;;;;;;;4869819;24;20054;-93
2023/12/16 03:29:06;;;;;;;24.88;5.53;;;;;;;;;;4846795;24;20047;-94
2023/12/16 03:31:55;;;;;;;8.48;2.92;;;;;;;;;;4824459;29;20047;-94
2023/12/16 03:37:23;;;;;;;16.80;3.08;;;;;;;;;;4878716;24;20070;-94
2023/12/16 03:39:53;;;;;;;10.30;3.00;;;;;;;;;;4844202;29;20062;-94
2023/12/16 03:45:44;;;;;;;11.68;4.90;;;6.50;99.90;;;;;;2509192;24;20296;-90
2023/12/16 03:49:02;;;;;;;7.30;3.03;;;6.40;99.90;;;;;;4846354;29;20121;-94
2023/12/16 03:51:46;;;;;;;12.57;3.10;;;;;;;;;;4836889;29;20079;-95
2023/12/16 03:54:31;;;;;;;10.55;2.67;;;;;;;;;;4837701;29;20049;-93
2023/12/16 03:57:17;;;;;;;14.55;3.60;;;;;;;;;;4822542;29;20066;-94
2023/12/16 04:00:16;;;;;;;15.38;4.10;;;;;;;;;;4838703;29;20053;-93
2023/12/16 04:03:01;;;;;;;11.48;3.72;;;;;;;;;;4840720;29;20038;-95
2023/12/16 04:05:56;;;;;;;18.15;3.03;;;;;;;;;;4841945;29;20052;-94
2023/12/16 04:08:51;;;;;;;9.82;3.30;;;;;;;;;;4841105;24;20058;-93
2023/12/16 04:12:09;;;;;;;12.00;3.58;;;;;;;;;;4855774;24;20077;-94
2023/12/16 04:14:58;;;;;;;8.25;3.78;;;;;;;;;;4796732;30;20084;-92
2023/12/16 04:17:43;;;;;;;5.88;2.35;;;;;;;;;;4808880;30;20063;-94
2023/12/16 04:20:46;;;;;;;16.83;3.03;;;;;;;;;;4848596;29;20042;-94
2023/12/16 04:23:38;;;;;;;10.93;2.92;;;;;;;;;;4856867;23;20045;-94
2023/12/16 04:26:28;;;;;;;11.57;4.53;;;;;;;;;;4815008;29;20097;-94
2023/12/16 04:29:11;;;;;;;9.48;2.95;;;;;;;;;;4817013;29;20076;-95
2023/12/16 04:32:26;;;;;;;13.00;4.32;;;;;;;;;;4802341;29;20077;-94
2023/12/16 04:35:20;;;;;;;11.10;3.45;;;;;;;;;;4771949;30;20051;-93
2023/12/16 04:38:07;;;;;;;10.57;3.63;;;;;;;;;;4766273;30;20042;-94
2023/12/16 04:44:14;;;;;;;12.52;3.28;;;;;;;;;;5012272;24;20123;-94
2023/12/16 04:53:58;;;;;;;10.93;3.85;;;;;;;;;;4817463;24;20535;-93
2023/12/16 04:57:19;;;;;;;16.73;3.20;;;;;;;;;;5103397;24;20086;-95
2023/12/16 05:27:12;;;;;;;13.95;3.78;;;;;;;;;;5008129;24;20054;-90
2023/12/16 05:30:57;;;;;;;16.27;3.78;;;6.30;99.90;;;;;;4806667;29;20164;-91
2023/12/16 05:34:04;;;;;;;17.13;4.75;;;;;;;;;;4833883;24;20045;-90
2023/12/16 05:44:16;;;;;;;17.05;4.65;;;;;;;;;;4960890;24;20283;-91
2023/12/16 06:00:08;;;;;;;18.10;5.53;;;;;;;;;;4830864;24;20038;-91
2023/12/16 06:06:40;;;;;;;15.00;5.53;;;6.60;99.90;;;;;;4850100;24;20074;-91
2023/12/16 06:09:43;;;;;;;11.07;4.43;;;6.60;99.90;;;;;;4825138;29;20163;-91
2023/12/16 06:12:21;;;;;;;24.02;6.20;;;;;;;;;;4811694;29;20051;-91
2023/12/16 06:15:37;;;;;;;20.80;5.40;;;;;;;;;;4808638;30;20124;-91
2023/12/16 06:19:08;;;;;;;19.83;6.45;;;;;;;;;;4915909;24;20059;-91
2023/12/16 06:22:30;;;;;;;;;;;6.80;99.90;;;;;;4809008;29;20088;-89
2023/12/16 06:25:28;;;;;;;29.13;6.68;;;;;;;;;;4827996;29;20100;-91
2023/12/16 06:32:20;;;;;;;26.10;7.03;;;;;;;;;;4952748;24;20046;-91
2023/12/16 06:35:41;;;;;;;25.88;7.38;;;;;;;;;;4858870;24;20057;-91
2023/12/16 06:38:33;;;;;;;21.25;8.18;;;;;;;;;;4841964;29;20079;-91
2023/12/16 06:41:30;;;;;;;27.02;7.00;;;;;;;;;;4862559;24;20055;-91
2023/12/16 06:44:29;;;;;;;23.33;7.30;;;;;;;;;;4764176;30;20051;-92
2023/12/16 06:47:21;;;;;;;22.65;8.00;;;;;;;;;;5094277;24;20037;-91
2023/12/16 07:03:35;;;;;;;32.03;7.07;;;;;;;;;;4808661;29;20053;-95
2023/12/16 07:06:45;;;;;;;29.00;8.00;;;;;;;;;;4898480;24;20059;-93
2023/12/16 07:16:22;;;;;;;35.30;8.35;;;7.40;99.90;;;;;;1800367;24;20021;-93
2023/12/16 07:19:37;;;;;;;21.33;6.80;;;;;;;;;;4878963;24;20092;-90
2023/12/16 07:26:03;;;;;;;33.50;7.78;;;;;;;;;;4805700;29;20107;-94
2023/12/16 07:28:45;;;;;;;44.00;8.18;;;;;;;;;;4806018;29;20071;-95
2023/12/16 07:32:04;;;;;;;23.75;7.88;;;7.60;99.90;;;;;;4797377;30;20089;-93
2023/12/16 07:35:06;;;;;;;30.48;8.93;;;;;;;;;;4797210;24;20038;-94
2023/12/16 07:38:02;;;;;;;34.58;8.27;;;;;;;;;;4845385;29;20069;-93
2023/12/16 07:41:02;;;;;;;33.63;8.18;;;;;;;;;;5009515;24;20125;-89
2023/12/16 07:43:33;;;;;;;29.42;7.82;;;;;;;;;;4856884;24;20063;-89
2023/12/16 07:48:55;;;;;;;22.52;8.40;;;;;;;;;;4820261;24;20047;-95
2023/12/16 08:06:11;;;;;;;38.35;9.63;;;;;;;;;;4050353;24;20054;-91
2023/12/16 08:09:04;;;;;;;31.55;8.38;;;;;;;;;;4834210;29;20103;-91
2023/12/16 08:15:40;;;;;;;27.38;8.32;;;;;;;;;;4828394;24;20065;-91
2023/12/16 08:23:58;;;;;;;29.77;7.93;;;;;;;;;;4808228;30;20070;-95
2023/12/16 08:26:51;;;;;;;48.10;8.55;;;;;;;;;;4772369;30;20095;-93
2023/12/16 08:30:00;;;;;;;32.42;8.60;;;7.50;99.90;;;;;;4863332;24;20051;-88
2023/12/16 08:35:44;;;;;;;46.00;9.95;;;;;;;;;;4820201;24;20039;-88
2023/12/16 08:41:44;;;;;;;46.83;10.65;;;;;;;;;;5048584;24;20110;-87
2023/12/16 08:44:46;;;;;;;29.67;9.80;;;7.90;99.90;;;;;;4878967;24;20066;-86
2023/12/16 08:47:52;;;;;;;25.63;8.35;;;7.80;99.90;;;;;;4896689;24;20057;-87
2023/12/16 08:54:09;;;;;;;31.10;8.63;;;;;;;;;;4851293;24;20038;-88
2023/12/16 08:59:14;;;;;;;35.33;9.15;;;;;;;;;;564309;27;20334;-88
2023/12/16 09:01:42;;;;;;;30.25;9.07;;;;;;;;;;4826836;24;20047;-88
2023/12/16 09:04:24;;;;;;;31.60;8.43;;;;;;;;;;4803584;24;20054;-87
2023/12/16 09:09:40;;;;;;;32.47;8.82;;;;;;;;;;5010701;24;20106;-87
2023/12/16 09:12:31;;;;;;;41.50;8.65;;;7.90;99.90;;;;;;4844477;24;20046;-92
2023/12/16 09:15:16;;;;;;;36.15;9.73;;;;;;;;;;4828219;24;20069;-91
2023/12/16 09:22:02;;;;;;;35.15;8.60;;;;;;;;;;4819162;24;20065;-96
2023/12/16 09:24:51;;;;;;;31.73;8.30;;;;;;;;;;4795015;29;20055;-94
2023/12/16 10:59:23;;;;;;;21.70;7.43;;;;;;;;;;4691356;24;20050;-90
2023/12/16 11:01:57;;;;;;;20.60;7.28;;;;;;;;;;4794976;29;20097;-92
2023/12/16 11:04:33;;;;;;;14.48;6.35;;;;;;;;;;4791154;29;20398;-89
2023/12/16 11:07:14;;;;;;;17.25;5.90;;;;;;;;;;4794320;29;20100;-92
2023/12/16 11:09:41;;;;;;;9.25;5.93;;;;;;;;;;4804875;29;20063;-90
2023/12/16 11:12:20;;;;;;;17.85;6.35;;;;;;;;;;4795425;29;20535;-90
2023/12/16 11:14:46;;;;;;;19.55;7.05;;;;;;;;;;4772095;30;20062;-90
2023/12/16 11:17:27;;;;;;;15.88;5.68;;;;;;;;;;4804550;29;20069;-90
2023/12/16 11:19:56;;;;;;;13.25;5.95;;;;;;;;;;4793119;29;20047;-90
2023/12/16 11:22:25;;;;;;;11.10;5.55;;;;;;;;;;4790416;29;20512;-90
2023/12/16 11:24:58;;;;;;;18.83;8.57;;;;;;;;;;4795548;29;20119;-91
2023/12/16 11:27:28;;;;;;;10.73;6.22;;;;;;;;;;4789594;29;20103;-90
2023/12/16 11:29:57;;;;;;;11.13;5.00;;;;;;;;;;4774962;29;20120;-89
2023/12/16 11:32:24;;;;;;;16.40;5.82;;;;;;;;;;4766220;29;20387;-92
2023/12/16 11:34:51;;;;;;;14.25;4.97;;;;;;;;;;4803826;29;20071;-91
2023/12/16 11:37:35;;;;;;;14.93;5.68;;;;;;;;;;4785773;24;20487;-90
2023/12/16 11:40:07;;;;;;;15.68;7.00;;;;;;;;;;4772198;30;20066;-91
2023/12/16 11:42:52;;;;;;;11.68;5.72;;;;;;;;;;4773489;30;20429;-91
2023/12/16 12:01:31;;;;;;;9.80;5.28;;;;;;;;;;5273987;24;20058;-89
2023/12/16 12:04:02;;;;;;;9.57;5.60;;;;;;;;;;4820617;29;20054;-89
2023/12/16 12:06:49;;;;;;;11.27;5.85;;;;;;;;;;4881311;24;20061;-92
2023/12/16 12:09:55;;;;;;;11.80;5.47;;;;;;;;;;4827820;29;20045;-89
2023/12/16 12:17:50;;;;;;;14.35;6.05;;;;;;;;;;5528859;24;20058;-91
2023/12/16 12:20:53;;;;;;;;;;;8.90;99.90;;;;;;4886296;24;20046;-89
2023/12/16 12:23:42;;;;;;;13.32;5.68;;;;;;;;;;4799190;29;20383;-92
2023/12/16 12:26:09;;;;;;;10.15;5.32;;;;;;;;;;4797921;29;20054;-92
2023/12/16 12:32:13;;;;;;;8.93;5.22;;;;;;;;;;4791203;30;20204;-92
2023/12/16 12:34:45;;;;;;;22.00;6.25;;;;;;;;;;4779159;24;20062;-91
2023/12/16 12:37:47;;;;;;;14.90;7.15;;;;;;;;;;4825912;24;20037;-91
2023/12/16 12:40:31;;;;;;;19.20;6.95;;;;;;;;;;4853651;24;20059;-91
2023/12/16 12:43:37;;;;;;;12.90;6.28;;;;;;;;;;4792748;29;20051;-91
2023/12/16 12:46:12;;;;;;;17.23;6.68;;;;;;;;;;4810530;29;20042;-90
2023/12/16 12:52:14;;;;;;;14.48;6.28;;;;;;;;;;4893465;24;20039;-91
2023/12/16 12:55:04;;;;;;;22.90;7.32;;;;;;;;;;4805297;29;20194;-94
2023/12/16 12:57:33;;;;;;;18.02;7.57;;;;;;;;;;4813337;29;20046;-94
2023/12/16 13:00:03;;;;;;;14.73;6.32;;;;;;;;;;4815172;29;20059;-96
2023/12/16 13:16:48;;;;;;;20.00;6.05;;;;;;;;;;4804901;29;20046;-96
2023/12/16 13:19:14;;;;;;;15.80;7.07;;;;;;;;;;4775611;30;20055;-91
2023/12/16 13:21:49;;;;;;;14.02;6.47;;;;;;;;;;4777787;29;20059;-94
2023/12/16 13:24:15;;;;;;;14.98;6.85;;;;;;;;;;4771918;29;20051;-96
2023/12/16 13:26:41;;;;;;;11.77;6.10;;;;;;;;;;4775870;30;20063;-96
2023/12/16 13:29:07;;;;;;;18.55;6.68;;;;;;;;;;4791206;29;20054;-95
2023/12/16 13:31:33;;;;;;;13.45;7.70;;;;;;;;;;4789059;29;20167;-95
2023/12/16 13:33:59;;;;;;;23.48;7.07;;;;;;;;;;4808646;29;20050;-95
2023/12/16 13:36:26;;;;;;;12.40;6.78;;;;;;;;;;4777335;29;20054;-95
2023/12/16 13:38:54;;;;;;;10.10;5.43;;;;;;;;;;4783615;29;20051;-95
2023/12/16 13:41:20;;;;;;;11.73;5.15;;;;;;;;;;4794932;29;20054;-95
2023/12/16 13:43:49;;;;;;;21.73;7.30;;;;;;;;;;4779388;29;20054;-95
2023/12/16 13:46:15;;;;;;;14.85;4.60;;;;;;;;;;4787746;30;20071;-95
2023/12/16 13:48:41;;;;;;;10.00;6.15;;;;;;;;;;4793497;29;20081;-96
2023/12/16 13:51:07;;;;;;;11.93;5.80;;;;;;;;;;4794855;29;20050;-95
2023/12/16 13:53:33;;;;;;;14.93;6.05;;;;;;;;;;4810370;29;20505;-96
2023/12/16 13:55:59;;;;;;;13.68;5.80;;;;;;;;;;4803184;29;20488;-96
2023/12/16 13:58:25;;;;;;;14.90;5.88;;;;;;;;;;4809693;29;20101;-96
2023/12/16 14:00:52;;;;;;;13.50;6.57;;;;;;;;;;4809527;29;20047;-95
2023/12/16 14:03:18;;;;;;;12.30;5.93;;;;;;;;;;4794643;29;20079;-96
2023/12/16 14:05:44;;;;;;;10.35;5.57;;;;;;;;;;4796505;29;20054;-92
2023/12/16 14:08:11;;;;;;;16.05;6.15;;;;;;;;;;4787339;29;20062;-96
2023/12/16 14:10:37;;;;;;;13.40;6.60;;;;;;;;;;4810636;29;20050;-96
2023/12/16 14:13:03;;;;;;;15.45;5.90;;;;;;;;;;4794773;29;20082;-96
2023/12/16 14:15:29;;;;;;;14.70;5.35;;;;;;;;;;4794275;29;20051;-96
2023/12/16 14:17:55;;;;;;;17.35;6.10;;;;;;;;;;4778750;29;20047;-94
2023/12/16 14:20:22;;;;;;;4.82;3.38;;;;;;;;;;4778427;29;20065;-96
2023/12/16 14:22:52;;;;;;;14.38;5.75;;;;;;;;;;4778925;29;20055;-95
2023/12/16 14:25:20;;;;;;;8.07;4.78;;;;;;;;;;4808316;29;20107;-96
2023/12/16 14:27:46;;;;;;;10.85;5.88;;;;;;;;;;4808214;29;20470;-95
2023/12/16 14:30:13;;;;;;;11.80;5.82;;;;;;;;;;4793799;29;20047;-96
2023/12/16 14:32:39;;;;;;;15.32;5.47;;;;;;;;;;4791264;29;20062;-96
2023/12/16 14:35:08;;;;;;;12.60;6.18;;;;;;;;;;4761033;30;20052;-94
2023/12/16 14:37:35;;;;;;;14.52;5.40;;;;;;;;;;4804860;29;20054;-96
2023/12/16 14:40:01;;;;;;;16.35;4.82;;;;;;;;;;4778437;29;20113;-96
2023/12/16 14:42:27;;;;;;;12.73;6.22;;;;;;;;;;4808978;29;20049;-96
2023/12/16 14:44:53;;;;;;;14.18;6.20;;;;;;;;;;4774916;30;20047;-96
2023/12/16 14:47:27;;;;;;;15.18;7.53;;;;;;;;;;4759752;30;20518;-95
2023/12/16 14:49:53;;;;;;;18.77;7.55;;;;;;;;;;4789166;30;20047;-94
2023/12/16 14:52:19;;;;;;;13.60;6.68;;;;;;;;;;4803194;29;20063;-93
2023/12/16 14:54:45;;;;;;;14.30;6.20;;;;;;;;;;4791602;29;20133;-94
2023/12/16 14:57:11;;;;;;;8.00;3.67;;;;;;;;;;4806912;29;20043;-95
2023/12/16 14:59:37;;;;;;;13.25;5.90;;;;;;;;;;4791573;29;20062;-95
2023/12/16 15:02:06;;;;;;;15.15;5.70;;;;;;;;;;4781594;30;20055;-94
2023/12/16 15:04:33;;;;;;;18.90;7.15;;;;;;;;;;4779374;29;20441;-95
2023/12/16 15:07:03;;;;;;;12.05;6.10;;;;;;;;;;4790960;29;20103;-94
2023/12/16 15:09:31;;;;;;;13.55;5.78;;;;;;;;;;4791281;29;20050;-95
2023/12/16 15:11:57;;;;;;;14.35;5.68;;;;;;;;;;4783909;29;20043;-95
2023/12/16 15:14:23;;;;;;;16.42;5.10;;;;;;;;;;4791461;29;20058;-95
2023/12/16 15:16:50;;;;;;;13.85;5.82;;;;;;;;;;4806397;29;20449;-95
2023/12/16 15:19:16;;;;;;;14.57;5.90;;;;;;;;;;4791313;29;20053;-95
2023/12/16 15:21:42;;;;;;;17.77;7.38;;;;;;;;;;4802310;29;20051;-94
2023/12/16 15:24:08;;;;;;;11.65;5.70;;;;;;;;;;4801390;29;20614;-94
2023/12/16 15:26:34;;;;;;;11.15;6.43;;;;;;;;;;4790944;29;20117;-94
2023/12/16 15:29:02;;;;;;;11.75;6.30;;;;;;;;;;4776630;29;20062;-94
2023/12/16 15:31:28;;;;;;;12.38;6.10;;;;;;;;;;4805433;29;20065;-95
2023/12/16 15:33:54;;;;;;;9.00;5.95;;;;;;;;;;4791303;29;20043;-94
2023/12/16 15:36:20;;;;;;;11.50;5.25;;;;;;;;;;4791182;29;20098;-94
2023/12/16 15:38:48;;;;;;;17.83;6.25;;;;;;;;;;4805899;29;20060;-94
2023/12/16 15:41:16;;;;;;;14.18;5.95;;;;;;;;;;4790906;29;20084;-94
2023/12/16 15:43:43;;;;;;;12.57;5.40;;;;;;;;;;4791216;29;20043;-93
2023/12/16 15:46:09;;;;;;;13.00;6.82;;;;;;;;;;4790879;29;20115;-94
2023/12/16 15:48:38;;;;;;;15.43;5.75;;;;;;;;;;4791017;29;20133;-95
2023/12/16 15:51:04;;;;;;;13.20;6.22;;;;;;;;;;4809353;29;20055;-93
2023/12/16 15:53:30;;;;;;;19.25;7.32;;;;;;;;;;4810633;29;20047;-93
2023/12/16 15:55:56;;;;;;;15.15;5.90;;;;;;;;;;4793693;29;20051;-94
2023/12/16 15:58:22;;;;;;;19.95;6.22;;;;;;;;;;4826652;29;20033;-94
2023/12/16 16:00:50;;;;;;;13.52;7.22;;;;;;;;;;4800373;30;20069;-93
2023/12/16 16:03:18;;;;;;;17.58;6.95;;;;;;;;;;4804108;29;20569;-94
2023/12/16 16:05:44;;;;;;;11.80;6.55;;;;;;;;;;4796854;29;20524;-94
2023/12/16 16:08:10;;;;;;;10.63;6.10;;;;;;;;;;4788125;30;20066;-94
2023/12/16 16:10:42;;;;;;;14.32;5.70;;;;;;;;;;4789974;29;20089;-95
2023/12/16 16:13:12;;;;;;;17.92;6.65;;;;;;;;;;4765279;30;20050;-95
2023/12/16 16:15:38;;;;;;;13.15;7.32;;;;;;;;;;4773200;30;20135;-94
2023/12/16 16:18:04;;;;;;;13.73;6.15;;;;;;;;;;4773052;29;20065;-94
2023/12/16 16:20:30;;;;;;;13.30;6.93;;;;;;;;;;4781304;30;20369;-94
2023/12/16 16:22:57;;;;;;;18.73;8.43;;;;;;;;;;4759249;29;20055;-95
2023/12/16 16:25:25;;;;;;;11.10;6.03;;;;;;;;;;4805500;29;20046;-94
2023/12/16 16:27:52;;;;;;;13.00;7.28;;;;;;;;;;4775776;29;20057;-95
2023/12/16 16:30:18;;;;;;;13.32;6.60;;;;;;;;;;4790127;29;20062;-93
2023/12/16 16:32:46;;;;;;;13.70;6.30;;;;;;;;;;4790631;29;20050;-94
2023/12/16 16:35:12;;;;;;;15.13;8.20;;;;;;;;;;4785240;30;20481;-94
2023/12/16 16:37:38;;;;;;;18.20;8.93;;;;;;;;;;4776023;29;20051;-95
2023/12/16 16:40:05;;;;;;;15.85;7.97;;;;;;;;;;4774467;29;20085;-95
2023/12/16 16:42:31;;;;;;;16.52;9.32;;;;;;;;;;4779619;30;20076;-95
2023/12/16 16:44:57;;;;;;;16.55;7.70;;;;;;;;;;4802107;29;20047;-96
2023/12/16 16:47:23;;;;;;;16.20;7.95;;;;;;;;;;4790928;29;20142;-95
2023/12/16 16:49:51;;;;;;;16.45;7.53;;;;;;;;;;4774937;30;20054;-95
2023/12/16 16:52:18;;;;;;;21.27;9.52;;;;;;;;;;4781060;29;20528;-96
2023/12/16 16:54:44;;;;;;;18.45;8.48;;;;;;;;;;4806002;29;20050;-96
2023/12/16 16:57:10;;;;;;;20.50;10.05;;;;;;;;;;4781974;29;20485;-95
2023/12/16 16:59:37;;;;;;;17.40;9.43;;;;;;;;;;4787352;29;20051;-95
2023/12/16 17:02:03;;;;;;;15.40;7.97;;;;;;;;;;4786947;30;20177;-95
2023/12/16 17:04:29;;;;;;;15.85;8.20;;;;;;;;;;4772147;30;20056;-94
2023/12/16 17:06:55;;;;;;;12.07;7.47;;;;;;;;;;4772341;30;20505;-95
2023/12/16 17:09:21;;;;;;;16.98;8.07;;;;;;;;;;4772911;30;20126;-94
2023/12/16 17:11:47;;;;;;;16.25;7.47;;;;;;;;;;4787259;29;20054;-95
2023/12/16 17:14:13;;;;;;;16.42;8.70;;;;;;;;;;4790569;29;20059;-96
2023/12/16 17:16:41;;;;;;;24.17;10.10;;;;;;;;;;4786911;30;20100;-95
2023/12/16 17:19:08;;;;;;;18.98;8.30;;;;;;;;;;4772399;30;20097;-94
2023/12/16 17:21:34;;;;;;;22.40;8.82;;;;;;;;;;4772320;30;20409;-96
2023/12/16 17:24:00;;;;;;;21.73;9.68;;;;;;;;;;4786962;30;20118;-95
2023/12/16 17:26:27;;;;;;;18.70;8.55;;;;;;;;;;4776957;29;20043;-96
2023/12/16 17:28:54;;;;;;;27.33;9.23;;;;;;;;;;4787244;30;20055;-95
2023/12/16 17:31:21;;;;;;;14.57;8.45;;;;;;;;;;4788386;29;20047;-94
2023/12/16 17:33:47;;;;;;;23.77;9.52;;;;;;;;;;4775376;30;20066;-94
2023/12/16 17:36:14;;;;;;;18.00;9.88;;;;;;;;;;4775189;30;20048;-94
2023/12/16 17:38:42;;;;;;;17.02;9.85;;;;;;;;;;4791619;29;20051;-94
2023/12/16 17:41:08;;;;;;;17.33;8.52;;;;;;;;;;4780401;30;20058;-94
2023/12/16 17:43:34;;;;;;;11.65;6.57;;;;;;;;;;4789069;29;20051;-94
2023/12/16 17:46:00;;;;;;;15.65;8.57;;;;;;;;;;4808199;29;20050;-94
2023/12/16 17:48:26;;;;;;;15.80;8.05;;;;;;;;;;4778813;29;20051;-94
2023/12/16 17:50:53;;;;;;;15.77;7.88;;;;;;;;;;4808364;29;20065;-95
2023/12/16 17:53:19;;;;;;;15.05;8.75;;;;;;;;;;4809166;29;20591;-95
2023/12/16 17:55:48;;;;;;;15.80;9.43;;;;;;;;;;4807949;29;20051;-95
2023/12/16 17:58:15;;;;;;;21.77;10.57;;;;;;;;;;4809245;29;20096;-95
2023/12/16 18:00:41;;;;;;;21.42;8.63;;;;;;;;;;4792753;29;20055;-95
2023/12/16 18:03:07;;;;;;;20.38;10.70;;;;;;;;;;4793335;29;20102;-95
2023/12/16 18:05:33;;;;;;;16.65;9.48;;;;;;;;;;4808507;29;20054;-95
2023/12/16 18:08:01;;;;;;;17.50;9.80;;;;;;;;;;4780381;29;20504;-95
2023/12/16 18:10:28;;;;;;;25.70;9.93;;;;;;;;;;4809296;29;20077;-94
2023/12/16 18:12:54;;;;;;;19.63;11.57;;;;;;;;;;4793334;29;20497;-95
2023/12/16 18:15:20;;;;;;;19.67;9.60;;;;;;;;;;4807729;29;20099;-95
2023/12/16 18:17:49;;;;;;;18.45;10.85;;;;;;;;;;4808455;29;20061;-95
2023/12/16 18:20:16;;;;;;;23.60;11.45;;;;;;;;;;4807688;29;20047;-96
2023/12/16 18:22:42;;;;;;;25.58;11.25;;;;;;;;;;4793576;29;20061;-95
2023/12/16 18:25:08;;;;;;;22.88;11.68;;;;;;;;;;4774631;29;20043;-95
2023/12/16 18:27:34;;;;;;;23.45;10.07;;;;;;;;;;4790142;29;20116;-95
2023/12/16 18:30:00;;;;;;;24.70;11.23;;;;;;;;;;4790515;30;20101;-95
2023/12/16 18:32:26;;;;;;;20.27;11.60;;;;;;;;;;4774387;30;20047;-94
2023/12/16 18:34:55;;;;;;;17.98;9.48;;;;;;;;;;4778947;29;20061;-96
2023/12/16 18:37:21;;;;;;;24.58;11.77;;;;;;;;;;4792437;29;20553;-95
2023/12/16 18:39:47;;;;;;;18.45;10.80;;;;;;;;;;4791710;29;20107;-95
2023/12/16 18:42:13;;;;;;;24.25;10.93;;;;;;;;;;4803503;29;20047;-94
2023/12/16 18:44:40;;;;;;;24.23;11.95;;;;;;;;;;4804759;29;20130;-95
2023/12/16 18:47:06;;;;;;;33.63;11.75;;;;;;;;;;4788332;29;20047;-95
2023/12/16 18:50:05;;;;;;;;;;;;;;;;;;;;;
2023/12/16 18:52:32;;;;;;;24.67;11.90;;;;;;;;;;4806340;29;20066;-95
2023/12/16 18:54:58;;;;;;;25.73;12.75;;;;;;;;;;4791925;29;20098;-96
2023/12/16 18:57:24;;;;;;;28.42;13.80;;;;;;;;;;4777282;29;20435;-95
2023/12/16 18:59:50;;;;;;;30.67;12.15;;;;;;;;;;4791593;29;20067;-95
2023/12/16 19:02:16;;;;;;;24.50;12.48;;;;;;;;;;4789741;29;20097;-96
2023/12/16 19:04:48;;;;;;;25.08;10.90;;;;;;;;;;4781557;29;20499;-95
2023/12/16 19:07:14;;;;;;;26.73;12.48;;;;;;;;;;4806507;29;20412;-95
2023/12/16 19:09:43;;;;;;;23.35;11.35;;;;;;;;;;4791517;29;20043;-95
2023/12/16 19:12:10;;;;;;;18.00;10.80;;;;;;;;;;4797747;29;20054;-95
2023/12/16 19:14:39;;;;;;;20.77;10.85;;;;;;;;;;4789501;29;20118;-94
2023/12/16 19:17:07;;;;;;;29.33;10.40;;;;;;;;;;4791521;29;20051;-95
2023/12/16 19:19:36;;;;;;;26.33;11.25;;;;;;;;;;4791942;29;20055;-94
2023/12/16 19:22:02;;;;;;;18.02;9.68;;;;;;;;;;4797805;29;20093;-94
2023/12/16 19:24:28;;;;;;;15.15;9.05;;;;;;;;;;4811379;29;20508;-96
2023/12/16 19:26:54;;;;;;;17.45;9.45;;;;;;;;;;4779831;30;20053;-92
2023/12/16 19:29:20;;;;;;;19.05;10.18;;;;;;;;;;4805691;29;20051;-93
2023/12/16 19:31:53;;;;;;;22.00;8.77;;;;;;;;;;4807376;29;20065;-95
2023/12/16 19:34:21;;;;;;;21.95;10.95;;;;;;;;;;4808140;29;20054;-95
2023/12/16 19:36:48;;;;;;;25.75;10.77;;;;;;;;;;4804034;29;20034;-94
2023/12/16 20:14:56;;;;;;;;;;;;;;;;;;;;;
2023/12/16 21:15:55;;;;;;;21.33;9.40;;;;;;;;;;4741568;30;20060;-89
2023/12/16 21:18:21;;;;;;;23.10;11.70;;;;;;;;;;4697591;30;20052;-90
2023/12/16 21:20:47;;;;;;;21.58;10.50;;;;;;;;;;4737339;30;20047;-89
2023/12/16 21:23:13;;;;;;;23.50;10.02;;;;;;;;;;4743331;30;20064;-90
2023/12/16 21:25:45;;;;;;;20.17;10.60;;;;;;;;;;4749782;30;20052;-94
2023/12/16 21:28:22;;;;;;;20.65;9.98;;;;;;;;;;4754042;30;20711;-96
2023/12/16 21:31:18;;;;;;;20.13;9.38;;;;;;;;;;4717594;30;20070;-92
2023/12/16 21:33:58;;;;;;;16.00;9.00;;;;;;;;;;4737013;30;20100;-96
2023/12/16 21:36:35;;;;;;;13.07;7.93;;;;;;;;;;4750956;30;20060;-94
2023/12/16 21:41:56;;;;;;;23.55;10.55;;;;;;;;;;4744603;24;20080;-95
2023/12/16 21:47:40;;;;;;;14.70;8.05;;;;;;;;;;4813484;29;20312;-95
2023/12/16 21:50:22;;;;;;;;;;;;;;;;;;;;;
2023/12/16 21:53:03;;;;;;;18.60;7.60;;;;;;;;;;4780676;29;20061;-96
2023/12/16 21:55:35;;;;;;;23.08;9.95;;;;;;;;;;4791949;30;20130;-94
2023/12/16 21:58:12;;;;;;;17.52;7.50;;;;;;;;;;4794154;29;20059;-91
2023/12/16 22:00:56;;;;;;;20.65;7.70;;;;;;;;;;4788139;29;20417;-94
2023/12/16 22:03:29;;;;;;;;;;;;;;;;;;4786201;29;20062;-92
2023/12/16 22:06:01;;;;;;;14.05;7.40;;;;;;;;;;4786103;29;20378;-92
2023/12/16 22:08:31;;;;;;;20.10;8.15;;;;;;;;;;4783550;29;20516;-91
2023/12/16 22:11:01;;;;;;;17.13;7.85;;;;;;;;;;4790768;29;20047;-93
2023/12/16 22:13:30;;;;;;;14.48;6.78;;;;;;;;;;4787484;29;20420;-93
2023/12/16 22:15:59;;;;;;;13.27;6.68;;;;;;;;;;4786451;29;20628;-92
2023/12/16 22:18:30;;;;;;;15.35;7.30;;;;;;;;;;4776081;29;20101;-91
2023/12/16 22:21:00;;;;;;;12.25;7.38;;;;;;;;;;4799786;29;20104;-92
2023/12/16 22:23:32;;;;;;;12.57;7.03;;;;;;;;;;4786617;30;20039;-93
2023/12/16 22:25:58;;;;;;;15.85;6.43;;;;;;;;;;4788940;29;20047;-92
2023/12/16 22:28:25;;;;;;;12.13;6.40;;;;;;;;;;4789973;29;20492;-92
2023/12/16 22:30:51;;;;;;;14.52;6.70;;;;;;;;;;4789028;29;20092;-92
2023/12/16 22:33:29;;;;;;;14.95;6.28;;;;;;;;;;4781723;29;20043;-92
2023/12/16 23:14:23;;;;;;;22.08;6.00;;;;;;;;;;4737462;30;20065;-90
2023/12/16 23:16:49;;;;;;;11.60;4.95;;;;;;;;;;4757027;30;20502;-93
2023/12/16 23:19:15;;;;;;;14.32;5.72;;;;;;;;;;4787028;29;20273;-91
2023/12/16 23:21:49;;;;;;;13.82;5.03;;;;;;;;;;4816686;29;20042;-95
2023/12/16 23:24:15;;;;;;;11.88;6.55;;;;;;;;;;4809193;29;20070;-93
2023/12/16 23:26:41;;;;;;;13.55;6.70;;;;;;;;;;4818817;29;20046;-95
2023/12/16 23:29:08;;;;;;;12.45;6.05;;;;;;;;;;4792272;29;20050;-96
2023/12/16 23:31:34;;;;;;;17.38;5.38;;;;;;;;;;4791250;29;20497;-95
2023/12/16 23:34:00;;;;;;;12.35;6.07;;;;;;;;;;4779133;29;20441;-96
2023/12/16 23:36:26;;;;;;;8.77;5.30;;;;;;;;;;4794810;29;20042;-96
2023/12/16 23:38:52;;;;;;;10.70;5.50;;;;;;;;;;4815021;29;20046;-96
2023/12/16 23:41:19;;;;;;;13.32;5.68;;;;;;;;;;4831557;29;20058;-96
2023/12/16 23:43:45;;;;;;;10.60;5.40;;;;;;;;;;4798023;29;20050;-96
2023/12/16 23:46:12;;;;;;;11.52;6.03;;;;;;;;;;4828456;29;20051;-96
2023/12/16 23:48:38;;;;;;;9.55;5.82;;;;;;;;;;4827943;29;20521;-96
2023/12/16 23:51:05;;;;;;;7.28;4.70;;;;;;;;;;4798970;29;20051;-96
2023/12/16 23:53:34;;;;;;;16.00;5.85;;;;;;;;;;4830586;29;20050;-96
2023/12/16 23:56:21;;;;;;;11.93;5.38;;;;;;;;;;4809254;29;20573;-96
2023/12/16 23:58:48;;;;;;;11.07;5.32;;;;;;;;;;4808747;29;20050;-94
